createdAt,value
2022-10-24T00:00:45.361Z,17.70
2022-10-24T00:03:16.552Z,17.70
2022-10-24T00:05:49.210Z,17.70
2022-10-24T00:08:20.344Z,17.70
2022-10-24T00:10:51.850Z,17.80
2022-10-24T00:13:24.862Z,17.80
2022-10-24T00:15:55.136Z,17.80
2022-10-24T00:18:25.393Z,17.80
2022-10-24T00:20:55.672Z,17.80
2022-10-24T00:23:25.968Z,17.80
2022-10-24T00:25:56.308Z,17.80
2022-10-24T00:28:29.341Z,17.80
2022-10-24T00:30:59.800Z,17.80
2022-10-24T00:33:30.691Z,17.80
2022-10-24T00:36:00.973Z,17.80
2022-10-24T00:38:33.549Z,17.80
2022-10-24T00:41:03.831Z,17.80
2022-10-24T00:43:36.890Z,17.80
2022-10-24T00:46:07.684Z,17.80
2022-10-24T00:48:41.009Z,17.90
2022-10-24T00:51:16.157Z,17.80
2022-10-24T00:53:49.324Z,17.80
2022-10-24T00:56:23.195Z,17.80
2022-10-24T00:58:57.822Z,17.70
2022-10-24T01:01:28.977Z,17.80
2022-10-24T01:03:59.501Z,17.80
2022-10-24T01:06:50.312Z,17.70
2022-10-24T01:09:38.590Z,17.80
2022-10-24T01:12:25.145Z,17.80
2022-10-24T01:15:13.755Z,17.70
2022-10-24T01:17:50.427Z,17.80
2022-10-24T01:20:53.078Z,17.70
2022-10-24T01:24:00.569Z,17.70
2022-10-24T01:27:05.942Z,17.70
2022-10-24T01:29:51.047Z,17.70
2022-10-24T01:32:31.401Z,17.70
2022-10-24T01:35:08.291Z,17.70
2022-10-24T01:37:44.717Z,17.70
2022-10-24T01:40:19.566Z,17.70
2022-10-24T01:42:52.268Z,17.70
2022-10-24T01:45:31.965Z,17.70
2022-10-24T01:48:04.968Z,17.60
2022-10-24T01:50:38.294Z,17.60
2022-10-24T01:53:10.386Z,17.60
2022-10-24T01:55:42.741Z,17.60
2022-10-24T01:58:12.968Z,17.60
2022-10-24T02:00:48.070Z,17.60
2022-10-24T02:03:25.598Z,17.60
2022-10-24T02:05:59.218Z,17.60
2022-10-24T02:08:36.049Z,17.60
2022-10-24T02:11:09.585Z,17.60
2022-10-24T02:13:48.050Z,17.60
2022-10-24T02:16:22.228Z,17.60
2022-10-24T02:18:56.285Z,17.60
2022-10-24T02:21:32.220Z,17.60
2022-10-24T02:24:05.779Z,17.50
2022-10-24T02:26:40.716Z,17.50
2022-10-24T02:29:16.968Z,17.50
2022-10-24T02:31:55.489Z,17.50
2022-10-24T02:34:26.672Z,17.50
2022-10-24T02:36:59.722Z,17.50
2022-10-24T02:39:30.743Z,17.50
2022-10-24T02:42:02.128Z,17.50
2022-10-24T02:44:33.349Z,17.40
2022-10-24T02:47:09.429Z,17.50
2022-10-24T02:49:39.794Z,17.40
2022-10-24T02:52:10.808Z,17.40
2022-10-24T02:54:41.733Z,17.40
2022-10-24T02:57:13.737Z,17.40
2022-10-24T02:59:44.010Z,17.40
2022-10-24T03:02:16.899Z,17.40
2022-10-24T03:04:47.243Z,17.40
2022-10-24T03:07:18.251Z,17.30
2022-10-24T03:09:48.538Z,17.40
2022-10-24T03:12:20.263Z,17.40
2022-10-24T03:14:50.520Z,17.40
2022-10-24T03:17:23.499Z,17.40
2022-10-24T03:19:53.728Z,17.40
2022-10-24T03:22:27.419Z,17.40
2022-10-24T03:25:01.974Z,17.40
2022-10-24T03:27:34.070Z,17.40
2022-10-24T03:30:04.460Z,17.40
2022-10-24T03:32:37.856Z,17.50
2022-10-24T03:35:11.714Z,17.50
2022-10-24T03:37:44.425Z,17.40
2022-10-24T03:40:15.340Z,17.40
2022-10-24T03:42:45.769Z,17.40
2022-10-24T03:45:16.381Z,17.40
2022-10-24T03:47:49.365Z,17.40
2022-10-24T03:50:19.811Z,17.40
2022-10-24T03:52:50.123Z,17.30
2022-10-24T03:55:20.449Z,17.30
2022-10-24T03:57:50.771Z,17.30
2022-10-24T04:00:21.465Z,17.30
2022-10-24T04:02:54.290Z,17.30
2022-10-24T04:05:24.637Z,17.30
2022-10-24T04:07:55.078Z,17.20
2022-10-24T04:10:25.497Z,17.20
2022-10-24T04:12:55.730Z,17.20
2022-10-24T04:15:26.045Z,17.20
2022-10-24T04:17:58.921Z,17.20
2022-10-24T04:20:29.119Z,17.20
2022-10-24T04:23:01.164Z,17.20
2022-10-24T04:25:34.129Z,17.20
2022-10-24T04:28:04.357Z,17.20
2022-10-24T04:30:34.953Z,17.20
2022-10-24T04:33:08.005Z,17.20
2022-10-24T04:35:39.147Z,17.20
2022-10-24T04:38:10.215Z,17.20
2022-10-24T04:40:40.578Z,17.20
2022-10-24T04:43:10.869Z,17.20
2022-10-24T04:45:41.112Z,17.10
2022-10-24T04:48:14.024Z,17.10
2022-10-24T04:50:45.703Z,17.20
2022-10-24T04:53:16.405Z,17.20
2022-10-24T04:55:47.288Z,17.20
2022-10-24T04:58:17.504Z,17.20
2022-10-24T05:00:50.060Z,17.20
2022-10-24T05:03:23.866Z,17.20
2022-10-24T05:05:54.307Z,17.20
2022-10-24T05:08:24.832Z,17.20
2022-10-24T05:10:55.040Z,17.20
2022-10-24T05:13:25.284Z,17.10
2022-10-24T05:15:55.727Z,17.10
2022-10-24T05:18:28.609Z,17.10
2022-10-24T05:20:59.566Z,17.10
2022-10-24T05:23:30.443Z,17.20
2022-10-24T05:26:00.824Z,17.10
2022-10-24T05:28:31.071Z,17.10
2022-10-24T05:31:01.342Z,17.10
2022-10-24T05:33:34.154Z,17.10
2022-10-24T05:36:04.675Z,17.10
2022-10-24T05:38:35.082Z,17.10
2022-10-24T05:41:05.356Z,17.10
2022-10-24T05:43:35.683Z,17.10
2022-10-24T05:46:07.520Z,17.10
2022-10-24T05:48:40.580Z,17.10
2022-10-24T05:51:11.262Z,17.00
2022-10-24T05:53:41.595Z,17.10
2022-10-24T05:56:11.996Z,17.10
2022-10-24T05:58:42.257Z,17.10
2022-10-24T06:01:12.736Z,17.00
2022-10-24T06:03:46.806Z,17.10
2022-10-24T06:06:17.116Z,17.00
2022-10-24T06:08:47.592Z,17.00
2022-10-24T06:11:18.045Z,17.00
2022-10-24T06:13:49.546Z,17.00
2022-10-24T06:16:20.072Z,17.00
2022-10-24T06:18:53.077Z,17.00
2022-10-24T06:21:23.396Z,17.00
2022-10-24T06:23:54.026Z,17.00
2022-10-24T06:26:24.991Z,17.00
2022-10-24T06:28:55.361Z,17.00
2022-10-24T06:31:26.084Z,17.00
2022-10-24T06:33:59.032Z,17.00
2022-10-24T06:36:31.514Z,16.90
2022-10-24T06:39:02.147Z,16.90
2022-10-24T06:41:32.777Z,17.00
2022-10-24T06:44:10.106Z,17.00
2022-10-24T06:46:41.412Z,17.00
2022-10-24T06:49:15.158Z,16.90
2022-10-24T06:51:45.501Z,16.90
2022-10-24T06:54:15.890Z,16.90
2022-10-24T06:56:46.261Z,16.90
2022-10-24T06:59:19.847Z,16.90
2022-10-24T07:01:50.444Z,16.90
2022-10-24T07:04:27.121Z,16.90
2022-10-24T07:06:57.580Z,17.00
2022-10-24T07:09:29.174Z,16.90
2022-10-24T07:11:59.571Z,17.00
2022-10-24T07:14:30.064Z,16.90
2022-10-24T07:17:00.506Z,16.90
2022-10-24T07:19:37.219Z,16.90
2022-10-24T07:22:08.145Z,16.90
2022-10-24T07:24:39.083Z,16.90
2022-10-24T07:27:09.501Z,16.90
2022-10-24T07:29:42.075Z,16.90
2022-10-24T07:32:13.427Z,16.80
2022-10-24T07:34:47.919Z,16.80
2022-10-24T07:37:18.542Z,16.80
2022-10-24T07:39:48.979Z,16.90
2022-10-24T07:42:19.766Z,16.80
2022-10-24T07:44:50.397Z,16.80
2022-10-24T07:47:20.788Z,16.90
2022-10-24T07:49:53.910Z,16.90
2022-10-24T07:52:24.241Z,16.90
2022-10-24T07:54:57.071Z,16.90
2022-10-24T07:57:27.765Z,16.90
2022-10-24T07:59:58.088Z,16.90
2022-10-24T08:02:28.827Z,17.00
2022-10-24T08:05:02.345Z,17.00
2022-10-24T08:07:33.132Z,17.00
2022-10-24T08:10:03.834Z,16.90
2022-10-24T08:12:36.965Z,16.90
2022-10-24T08:15:09.047Z,17.00
2022-10-24T08:17:40.241Z,17.00
2022-10-24T08:20:15.169Z,17.00
2022-10-24T08:22:46.299Z,17.00
2022-10-24T08:25:17.453Z,16.90
2022-10-24T08:27:48.185Z,17.00
2022-10-24T08:30:20.617Z,17.00
2022-10-24T08:32:51.457Z,17.00
2022-10-24T08:35:25.992Z,17.00
2022-10-24T08:37:59.020Z,17.10
2022-10-24T08:40:30.391Z,17.10
2022-10-24T08:43:01.544Z,17.10
2022-10-24T08:45:38.932Z,17.10
2022-10-24T08:48:15.947Z,17.10
2022-10-24T08:50:55.062Z,17.10
2022-10-24T08:53:31.333Z,17.10
2022-10-24T08:56:04.082Z,17.10
2022-10-24T08:58:39.146Z,17.20
2022-10-24T09:01:15.916Z,17.20
2022-10-24T09:03:55.998Z,17.20
2022-10-24T09:06:31.774Z,17.20
2022-10-24T09:09:04.777Z,17.30
2022-10-24T09:11:46.981Z,17.20
2022-10-24T09:14:20.339Z,17.30
2022-10-24T09:16:55.953Z,17.40
2022-10-24T09:19:28.863Z,17.40
2022-10-24T09:22:03.086Z,17.50
2022-10-24T09:24:42.359Z,17.50
2022-10-24T09:27:19.540Z,17.40
2022-10-24T09:29:50.189Z,17.50
2022-10-24T09:32:23.906Z,17.50
2022-10-24T09:34:54.298Z,17.60
2022-10-24T09:37:46.969Z,17.60
2022-10-24T09:40:25.045Z,17.60
2022-10-24T09:43:00.103Z,17.60
2022-10-24T09:45:38.704Z,17.80
2022-10-24T09:48:17.552Z,17.70
2022-10-24T09:50:49.733Z,17.80
2022-10-24T09:53:29.798Z,17.80
2022-10-24T09:56:02.711Z,17.80
2022-10-24T09:58:35.861Z,17.80
2022-10-24T10:01:09.867Z,17.90
2022-10-24T10:03:40.369Z,18.00
2022-10-24T10:06:19.724Z,17.90
2022-10-24T10:08:58.465Z,17.90
2022-10-24T10:11:35.071Z,17.90
2022-10-24T10:14:24.157Z,17.90
2022-10-24T10:17:02.885Z,17.90
2022-10-24T10:19:36.051Z,17.90
2022-10-24T10:22:08.716Z,17.90
2022-10-24T10:24:46.451Z,17.90
2022-10-24T10:27:36.196Z,17.90
2022-10-24T10:30:22.197Z,17.90
2022-10-24T10:33:17.598Z,18.00
2022-10-24T10:35:55.603Z,17.90
2022-10-24T10:38:46.308Z,18.10
2022-10-24T10:41:31.872Z,18.00
2022-10-24T10:44:23.794Z,18.00
2022-10-24T10:47:02.472Z,18.20
2022-10-24T10:49:34.232Z,18.20
2022-10-24T10:52:09.665Z,18.20
2022-10-24T10:54:51.564Z,18.20
2022-10-24T10:57:29.026Z,18.30
2022-10-24T11:00:07.854Z,18.40
2022-10-24T11:02:48.110Z,18.30
2022-10-24T11:05:32.652Z,18.40
2022-10-24T11:08:13.780Z,18.50
2022-10-24T11:10:50.371Z,18.50
2022-10-24T11:13:27.665Z,18.60
2022-10-24T11:16:02.018Z,18.50
2022-10-24T11:18:37.158Z,18.40
2022-10-24T11:21:11.485Z,18.40
2022-10-24T11:23:46.780Z,18.30
2022-10-24T11:26:23.464Z,18.20
2022-10-24T11:29:02.403Z,18.20
2022-10-24T11:31:38.403Z,18.00
2022-10-24T11:34:16.303Z,18.00
2022-10-24T11:36:54.869Z,18.00
2022-10-24T11:39:30.915Z,18.00
2022-10-24T11:42:08.463Z,18.00
2022-10-24T11:44:52.779Z,18.00
2022-10-24T11:47:49.101Z,18.00
2022-10-24T11:50:27.384Z,18.00
2022-10-24T11:53:02.935Z,18.00
2022-10-24T11:55:39.343Z,18.00
2022-10-24T11:58:16.295Z,18.00
2022-10-24T12:01:14.132Z,18.10
2022-10-24T12:04:28.902Z,18.10
2022-10-24T12:07:37.402Z,18.00
2022-10-24T12:10:24.215Z,18.00
2022-10-24T12:13:16.019Z,17.90
2022-10-24T12:15:59.252Z,17.80
2022-10-24T12:18:33.997Z,17.50
2022-10-24T12:21:07.975Z,17.40
2022-10-24T12:23:38.932Z,17.40
2022-10-24T12:26:11.064Z,17.30
2022-10-24T12:28:41.696Z,17.40
2022-10-24T12:31:26.138Z,17.30
2022-10-24T12:34:27.582Z,17.20
2022-10-24T12:37:12.589Z,17.40
2022-10-24T12:39:47.433Z,17.30
2022-10-24T12:42:20.558Z,17.30
2022-10-24T12:44:51.875Z,17.20
2022-10-24T12:47:40.199Z,17.30
2022-10-24T12:50:40.381Z,17.20
2022-10-24T12:53:22.984Z,17.20
2022-10-24T12:56:15.418Z,17.10
2022-10-24T12:58:47.237Z,17.00
2022-10-24T13:01:29.895Z,17.00
2022-10-24T13:04:32.151Z,17.00
2022-10-24T13:07:31.315Z,17.00
2022-10-24T13:10:20.541Z,17.00
2022-10-24T13:15:48.165Z,17.00
2022-10-24T13:18:39.185Z,17.00
2022-10-24T13:21:24.693Z,16.90
2022-10-24T13:23:55.372Z,16.90
2022-10-24T13:26:41.346Z,17.00
2022-10-24T13:29:17.902Z,17.10
2022-10-24T13:31:51.449Z,17.10
2022-10-24T13:34:26.254Z,17.20
2022-10-24T13:37:23.046Z,17.20
2022-10-24T13:39:56.032Z,17.30
2022-10-24T13:42:35.084Z,17.40
2022-10-24T13:45:10.703Z,17.40
2022-10-24T13:47:47.438Z,17.40
2022-10-24T13:50:21.784Z,17.40
2022-10-24T13:52:59.361Z,17.50
2022-10-24T13:55:34.542Z,17.40
2022-10-24T13:58:12.753Z,17.50
2022-10-24T14:00:46.446Z,17.60
2022-10-24T14:03:20.079Z,17.60
2022-10-24T14:05:53.197Z,17.50
2022-10-24T14:08:30.041Z,17.60
2022-10-24T14:11:03.053Z,17.70
2022-10-24T14:13:36.938Z,17.70
2022-10-24T14:16:10.289Z,17.70
2022-10-24T14:18:41.772Z,17.80
2022-10-24T14:21:21.894Z,17.80
2022-10-24T14:24:02.595Z,17.80
2022-10-24T14:26:33.142Z,17.80
2022-10-24T14:29:03.595Z,17.70
2022-10-24T14:31:38.368Z,17.80
2022-10-24T14:34:09.912Z,17.70
2022-10-24T14:36:42.620Z,17.60
2022-10-24T14:39:24.101Z,17.60
2022-10-24T14:41:55.959Z,17.60
2022-10-24T14:44:26.920Z,17.60
2022-10-24T14:47:06.199Z,17.50
2022-10-24T14:49:39.622Z,17.50
2022-10-24T14:52:13.796Z,17.50
2022-10-24T14:54:55.887Z,17.50
2022-10-24T14:57:26.747Z,17.50
2022-10-24T14:59:59.794Z,17.40
2022-10-24T15:02:36.471Z,17.50
2022-10-24T15:05:31.209Z,17.50
2022-10-24T15:08:23.152Z,17.50
2022-10-24T15:11:07.494Z,17.50
2022-10-24T15:14:00.055Z,17.50
2022-10-24T15:16:39.426Z,17.50
2022-10-24T15:19:18.444Z,17.40
2022-10-24T15:21:51.430Z,17.50
2022-10-24T15:24:27.347Z,17.40
2022-10-24T15:27:12.597Z,17.50
2022-10-24T15:29:43.650Z,17.40
2022-10-24T15:32:14.332Z,17.30
2022-10-24T15:34:45.222Z,17.40
2022-10-24T15:37:21.679Z,17.40
2022-10-24T15:39:52.841Z,17.40
2022-10-24T15:42:26.227Z,17.40
2022-10-24T15:44:56.614Z,17.40
2022-10-24T15:47:26.994Z,17.40
2022-10-24T15:49:57.388Z,17.40
2022-10-24T15:52:27.812Z,17.40
2022-10-24T15:54:58.394Z,17.30
2022-10-24T15:57:31.488Z,17.30
2022-10-24T16:00:02.344Z,17.30
2022-10-24T16:02:46.058Z,17.30
2022-10-24T16:05:20.271Z,17.30
2022-10-24T16:07:52.293Z,17.30
2022-10-24T16:10:24.465Z,17.20
2022-10-24T16:12:57.417Z,17.20
2022-10-24T16:18:22.672Z,17.10
2022-10-24T16:20:53.610Z,17.20
2022-10-24T16:23:25.100Z,17.10
2022-10-24T16:25:56.007Z,17.10
2022-10-24T16:28:29.057Z,17.00
2022-10-24T16:30:59.694Z,17.00
2022-10-24T16:33:29.933Z,17.00
2022-10-24T16:36:00.657Z,17.00
2022-10-24T16:38:31.819Z,17.00
2022-10-24T16:41:02.592Z,16.90
2022-10-24T16:43:38.886Z,17.00
2022-10-24T16:46:16.693Z,16.90
2022-10-24T16:48:47.762Z,16.90
2022-10-24T16:51:25.559Z,16.90
2022-10-24T16:53:56.121Z,16.90
2022-10-24T16:56:26.775Z,16.90
2022-10-24T16:59:00.104Z,16.80
2022-10-24T17:01:30.826Z,16.90
2022-10-24T17:04:01.480Z,16.80
2022-10-24T17:06:31.943Z,16.80
2022-10-24T17:09:02.240Z,16.80
2022-10-24T17:11:44.771Z,16.80
2022-10-24T17:14:18.715Z,16.80
2022-10-24T17:16:49.308Z,16.80
2022-10-24T17:19:19.539Z,16.80
2022-10-24T17:21:53.501Z,16.90
2022-10-24T17:24:26.541Z,16.80
2022-10-24T17:26:57.667Z,16.90
2022-10-24T17:29:33.959Z,16.90
2022-10-24T17:32:05.798Z,16.90
2022-10-24T17:34:36.810Z,16.90
2022-10-24T17:37:11.118Z,16.90
2022-10-24T17:39:51.295Z,16.90
2022-10-24T17:42:22.550Z,16.90
2022-10-24T17:44:56.059Z,16.90
2022-10-24T17:47:26.961Z,16.90
2022-10-24T17:49:57.717Z,16.90
2022-10-24T17:52:28.384Z,16.90
2022-10-24T17:54:58.861Z,16.90
2022-10-24T17:57:29.502Z,16.90
2022-10-24T18:00:02.935Z,16.90
2022-10-24T18:02:48.825Z,16.70
2022-10-24T18:05:20.481Z,16.60
2022-10-24T18:07:53.350Z,16.60
2022-10-24T18:10:24.092Z,16.60
2022-10-24T18:12:54.915Z,16.50
2022-10-24T18:15:27.941Z,16.30
2022-10-24T18:17:58.407Z,16.30
2022-10-24T18:20:29.006Z,16.30
2022-10-24T18:22:59.786Z,16.30
2022-10-24T18:25:30.600Z,16.30
2022-10-24T18:28:01.136Z,16.20
2022-10-24T18:30:35.553Z,16.10
2022-10-24T18:33:07.123Z,16.20
2022-10-24T18:35:38.991Z,16.20
2022-10-24T18:38:09.616Z,16.20
2022-10-24T18:40:40.545Z,16.20
2022-10-24T18:43:13.134Z,16.20
2022-10-24T18:45:48.408Z,16.10
2022-10-24T18:48:19.992Z,16.10
2022-10-24T18:50:53.776Z,16.10
2022-10-24T18:53:27.202Z,16.10
2022-10-24T18:55:58.192Z,16.20
2022-10-24T18:58:28.908Z,16.20
2022-10-24T19:01:03.005Z,16.20
2022-10-24T19:03:38.416Z,16.10
2022-10-24T19:06:23.885Z,16.20
2022-10-24T19:08:55.264Z,16.10
2022-10-24T19:11:26.243Z,16.10
2022-10-24T19:13:57.255Z,16.10
2022-10-24T19:16:32.422Z,16.10
2022-10-24T19:19:04.689Z,16.10
2022-10-24T19:21:35.129Z,16.10
2022-10-24T19:24:06.040Z,16.10
2022-10-24T19:26:36.362Z,16.10
2022-10-24T19:29:06.939Z,16.00
2022-10-24T19:31:40.089Z,16.10
2022-10-24T19:34:11.876Z,16.10
2022-10-24T19:36:42.164Z,16.10
2022-10-24T19:39:12.850Z,16.10
2022-10-24T19:41:43.346Z,16.10
2022-10-24T19:44:13.874Z,16.10
2022-10-24T19:46:47.023Z,16.10
2022-10-24T19:49:17.437Z,16.10
2022-10-24T19:51:47.721Z,16.10
2022-10-24T19:54:18.128Z,16.10
2022-10-24T19:56:49.525Z,16.10
2022-10-24T19:59:19.813Z,16.00
2022-10-24T20:01:52.782Z,16.10
2022-10-24T20:04:23.603Z,16.10
2022-10-24T20:06:53.995Z,16.10
2022-10-24T20:09:24.431Z,16.00
2022-10-24T20:11:54.708Z,16.10
2022-10-24T20:14:25.883Z,16.10
2022-10-24T20:16:58.803Z,16.10
2022-10-24T20:19:29.222Z,16.10
2022-10-24T20:22:02.322Z,16.10
2022-10-24T20:24:34.012Z,16.10
2022-10-24T20:29:38.110Z,16.10
2022-10-24T20:32:11.195Z,16.10
2022-10-24T20:34:41.588Z,16.10
2022-10-24T20:37:11.960Z,16.10
2022-10-24T20:39:42.317Z,16.10
2022-10-24T20:42:12.665Z,16.10
2022-10-24T20:44:43.111Z,16.10
2022-10-24T20:47:15.938Z,16.10
2022-10-24T20:49:46.569Z,16.10
2022-10-24T20:52:17.161Z,16.10
2022-10-24T20:54:48.379Z,16.10
2022-10-24T20:57:18.733Z,16.10
2022-10-24T20:59:49.258Z,16.10
2022-10-24T21:02:22.573Z,16.00
2022-10-24T21:04:53.498Z,16.00
2022-10-24T21:07:23.917Z,16.00
2022-10-24T21:09:54.760Z,16.00
2022-10-24T21:12:25.016Z,16.00
2022-10-24T21:14:55.674Z,16.10
2022-10-24T21:17:28.609Z,16.00
2022-10-24T21:19:58.866Z,16.00
2022-10-24T21:22:30.987Z,16.00
2022-10-24T21:25:01.509Z,16.00
2022-10-24T21:27:31.877Z,16.00
2022-10-24T21:30:02.190Z,16.00
2022-10-24T21:32:35.056Z,16.00
2022-10-24T21:35:05.373Z,16.00
2022-10-24T21:37:35.783Z,16.00
2022-10-24T21:40:06.296Z,16.00
2022-10-24T21:42:36.496Z,16.00
2022-10-24T21:45:07.449Z,16.00
2022-10-24T21:47:40.218Z,16.00
2022-10-24T21:50:10.964Z,16.00
2022-10-24T21:52:41.227Z,16.00
2022-10-24T21:55:12.226Z,15.90
2022-10-24T21:57:42.410Z,16.00
2022-10-24T22:00:14.807Z,16.00
2022-10-24T22:02:47.723Z,15.90
2022-10-24T22:05:18.354Z,15.90
2022-10-24T22:07:49.721Z,15.90
2022-10-24T22:10:20.350Z,15.90
2022-10-24T22:12:50.561Z,15.90
2022-10-24T22:15:20.851Z,15.90
2022-10-24T22:17:55.225Z,15.90
2022-10-24T22:20:25.558Z,15.90
2022-10-24T22:22:55.972Z,15.90
2022-10-24T22:25:26.636Z,15.80
2022-10-24T22:27:56.784Z,15.90
2022-10-24T22:30:27.073Z,15.80
2022-10-24T22:33:00.537Z,15.80
2022-10-24T22:35:31.704Z,15.80
2022-10-24T22:38:02.551Z,15.90
2022-10-24T22:40:35.114Z,15.80
2022-10-24T22:43:05.918Z,15.80
2022-10-24T22:45:37.070Z,15.80
2022-10-24T22:48:19.880Z,15.70
2022-10-24T22:50:54.011Z,15.70
2022-10-24T22:53:26.181Z,15.70
2022-10-24T22:56:13.635Z,15.70
2022-10-24T22:58:45.625Z,15.70
2022-10-24T23:01:24.637Z,15.70
2022-10-24T23:04:06.275Z,15.80
2022-10-24T23:06:45.550Z,15.70
2022-10-24T23:09:16.109Z,15.70
2022-10-24T23:11:47.027Z,15.70
2022-10-24T23:14:17.913Z,15.70
2022-10-24T23:16:53.721Z,15.70
2022-10-24T23:19:28.542Z,15.70
2022-10-24T23:22:03.513Z,15.70
2022-10-24T23:24:34.086Z,15.60
2022-10-24T23:27:38.259Z,15.70
2022-10-24T23:30:17.441Z,15.70
2022-10-24T23:32:49.567Z,15.60
2022-10-24T23:35:24.212Z,15.60
2022-10-24T23:37:55.717Z,15.60
2022-10-24T23:40:35.128Z,15.60
2022-10-24T23:43:06.955Z,15.60
2022-10-24T23:45:40.021Z,15.60
2022-10-24T23:48:21.502Z,15.60
2022-10-24T23:51:02.548Z,15.60
2022-10-24T23:53:43.218Z,15.60
2022-10-24T23:56:15.374Z,15.60
2022-10-24T23:58:45.609Z,15.60
